Karla A — TCCR8 — position and weather

sailwx.info

Track history (hours):
 
Tides and Currents Weather Stations Pressure Air Temp Water Temp Dewpoint Dewpoint Depression Visibility Wind Speed Wind Dir Waves Ship Positions

Karla A

Last reported at 2015-Jul-05 04:33 UTC. Time now 2015-Jul-05 06:05 UTC.
Position N 37°40' E 025°47'.

Length 155 m; draft 8.4 m.

Type: Ship (hazmat cat A). MMSI: 271000744.

Date/timePositionNaut miles runAvg speedWind from/ knotsBaromVisibWave heightAir tempDewpointWater temp
2015-Jul-05 04:33N 37°40' E 025°47'  
2015-Jul-02 11:07N 40°27' E 028°29'813.1
2015-Jul-02 10:31N 40°26' E 028°39'1612.1
2015-Jul-02 09:13N 40°25' E 028°59'4 6.0
2015-Jul-02 08:32N 40°25' E 029°05'0 0.0
2015-Jul-02 06:19N 40°25' E 029°05'0 0.0
2015-Jul-02 05:25N 40°25' E 029°05'0 0.0
2015-Jul-02 03:24N 40°25' E 029°05'0 0.0
2015-Jul-02 02:18N 40°25' E 029°05'0 0.0
2015-Jul-02 01:29N 40°25' E 029°05'0 0.0
2015-Jul-02 00:29N 40°25' E 029°05'0 0.0
2015-Jul-01 23:28N 40°25' E 029°05'0 0.0
2015-Jul-01 21:33N 40°25' E 029°05'3 2.7
2015-Jul-01 20:32N 40°25' E 029°01'2210.9
2015-Jul-01 18:30N 40°41' E 028°40'1513.6
2015-Jul-01 17:23N 40°56' E 028°40'2 0.2
2015-Jul-01 09:12N 40°55' E 028°42'813.2
2015-Jul-01 08:33N 40°56' E 028°53'7 1.2
2015-Jul-01 02:29N 41°00' E 029°00'2 2.5
2015-Jul-01 01:33N 40°58' E 028°60'1110.8
2015-Jul-01 00:34N 40°48' E 029°04'1313.1
2015-Jun-30 23:33N 40°44' E 029°21'16 0.8
2015-Jun-30 02:33N 40°46' E 029°42'1110.6
2015-Jun-30 01:30N 40°45' E 029°28'9 9.8
2015-Jun-30 00:32N 40°44' E 029°15'1212.6
2015-Jun-29 23:33N 40°44' E 028°59'1312.2
2015-Jun-29 22:27N 40°44' E 028°41'22310.0
2015-Jun-29 00:04N 37°47' E 025°46'612.1
2015-Jun-28 23:34N 37°41' E 025°47'1212.3
2015-Jun-28 22:34N 37°29' E 025°49'1212.0
2015-Jun-28 21:33N 37°18' E 025°57'1212.2
2015-Jun-28 20:33N 37°08' E 026°05'1212.2
2015-Jun-28 19:33N 36°57' E 026°12'1212.2
2015-Jun-28 18:33N 36°48' E 026°23'1212.0
2015-Jun-28 17:33N 36°39' E 026°32'1211.9
2015-Jun-28 16:32N 36°30' E 026°43'1211.9
2015-Jun-28 15:33N 36°21' E 026°52'22711.8
2015-Jun-27 20:20N 33°32' E 029°57'3612.6
2015-Jun-27 17:28N 33°05' E 030°26'1212.9
2015-Jun-27 16:33N 32°56' E 030°35'1312.8
2015-Jun-27 15:31N 32°46' E 030°45'1312.9
2015-Jun-27 14:33N 32°37' E 030°55'1312.9
2015-Jun-27 13:33N 32°27' E 031°05'1313.2
2015-Jun-27 12:33N 32°18' E 031°16'1313.0
2015-Jun-27 11:34N 32°08' E 031°26'1312.7
2015-Jun-27 10:33N 31°59' E 031°36'1312.3
2015-Jun-27 09:32N 31°50' E 031°47'1312.1
2015-Jun-27 08:26N 31°44' E 032°01'1112.5
2015-Jun-27 07:32N 31°36' E 032°10'1212.4
2015-Jun-27 06:33N 31°29' E 032°21'1111.1
2015-Jun-27 05:31N 31°17' E 032°20'3 0.4
2015-Jun-26 21:20N 31°15' E 032°18'0 0.0
2015-Jun-26 16:08N 31°15' E 032°18'  
Track history (hours):
 
Tides and Currents Weather Stations Pressure Air Temp Water Temp Dewpoint Dewpoint Depression Visibility Wind Speed Wind Dir Waves Ship Positions

Karla A

Last reported at 2015-Jul-05 04:33 UTC. Time now 2015-Jul-05 06:05 UTC.
Position N 37°40' E 025°47'.

Length 155 m; draft 8.4 m.

Type: Ship (hazmat cat A). MMSI: 271000744.

Date/timePositionNaut miles runAvg speedWind from/ knotsBaromVisibWave heightAir tempDewpointWater temp
2015-Jul-05 04:33N 37°40' E 025°47'  
2015-Jul-02 11:07N 40°27' E 028°29'813.1
2015-Jul-02 10:31N 40°26' E 028°39'1612.1
2015-Jul-02 09:13N 40°25' E 028°59'4 6.0
2015-Jul-02 08:32N 40°25' E 029°05'0 0.0
2015-Jul-02 06:19N 40°25' E 029°05'0 0.0
2015-Jul-02 05:25N 40°25' E 029°05'0 0.0
2015-Jul-02 03:24N 40°25' E 029°05'0 0.0
2015-Jul-02 02:18N 40°25' E 029°05'0 0.0
2015-Jul-02 01:29N 40°25' E 029°05'0 0.0
2015-Jul-02 00:29N 40°25' E 029°05'0 0.0
2015-Jul-01 23:28N 40°25' E 029°05'0 0.0
2015-Jul-01 21:33N 40°25' E 029°05'3 2.7
2015-Jul-01 20:32N 40°25' E 029°01'2210.9
2015-Jul-01 18:30N 40°41' E 028°40'1513.6
2015-Jul-01 17:23N 40°56' E 028°40'2 0.2
2015-Jul-01 09:12N 40°55' E 028°42'813.2
2015-Jul-01 08:33N 40°56' E 028°53'7 1.2
2015-Jul-01 02:29N 41°00' E 029°00'2 2.5
2015-Jul-01 01:33N 40°58' E 028°60'1110.8
2015-Jul-01 00:34N 40°48' E 029°04'1313.1
2015-Jun-30 23:33N 40°44' E 029°21'16 0.8
2015-Jun-30 02:33N 40°46' E 029°42'1110.6
2015-Jun-30 01:30N 40°45' E 029°28'9 9.8
2015-Jun-30 00:32N 40°44' E 029°15'1212.6
2015-Jun-29 23:33N 40°44' E 028°59'1312.2
2015-Jun-29 22:27N 40°44' E 028°41'22310.0
2015-Jun-29 00:04N 37°47' E 025°46'612.1
2015-Jun-28 23:34N 37°41' E 025°47'1212.3
2015-Jun-28 22:34N 37°29' E 025°49'1212.0
2015-Jun-28 21:33N 37°18' E 025°57'1212.2
2015-Jun-28 20:33N 37°08' E 026°05'1212.2
2015-Jun-28 19:33N 36°57' E 026°12'1212.2
2015-Jun-28 18:33N 36°48' E 026°23'1212.0
2015-Jun-28 17:33N 36°39' E 026°32'1211.9
2015-Jun-28 16:32N 36°30' E 026°43'1211.9
2015-Jun-28 15:33N 36°21' E 026°52'22711.8
2015-Jun-27 20:20N 33°32' E 029°57'3612.6
2015-Jun-27 17:28N 33°05' E 030°26'1212.9
2015-Jun-27 16:33N 32°56' E 030°35'1312.8
2015-Jun-27 15:31N 32°46' E 030°45'1312.9
2015-Jun-27 14:33N 32°37' E 030°55'1312.9
2015-Jun-27 13:33N 32°27' E 031°05'1313.2
2015-Jun-27 12:33N 32°18' E 031°16'1313.0
2015-Jun-27 11:34N 32°08' E 031°26'1312.7
2015-Jun-27 10:33N 31°59' E 031°36'1312.3
2015-Jun-27 09:32N 31°50' E 031°47'1312.1
2015-Jun-27 08:26N 31°44' E 032°01'1112.5
2015-Jun-27 07:32N 31°36' E 032°10'1212.4
2015-Jun-27 06:33N 31°29' E 032°21'1111.1
2015-Jun-27 05:31N 31°17' E 032°20'3 0.4
2015-Jun-26 21:20N 31°15' E 032°18'0 0.0
2015-Jun-26 16:08N 31°15' E 032°18'  

Dump ship's entire track history